sensor_id;sensor_type;location;lat;lon;timestamp;temperature;humidity
36384;DHT22;22418;51.210;6.976;2023-01-15T00:00:54;10.10;99.90
36384;DHT22;22418;51.210;6.976;2023-01-15T00:03:24;10.10;99.90
36384;DHT22;22418;51.210;6.976;2023-01-15T00:05:55;10.10;99.90
36384;DHT22;22418;51.210;6.976;2023-01-15T00:08:25;10.00;99.90
36384;DHT22;22418;51.210;6.976;2023-01-15T00:10:56;10.00;99.90
36384;DHT22;22418;51.210;6.976;2023-01-15T00:13:26;10.00;99.90
36384;DHT22;22418;51.210;6.976;2023-01-15T00:16:09;9.90;99.90
36384;DHT22;22418;51.210;6.976;2023-01-15T00:18:41;9.70;99.90
36384;DHT22;22418;51.210;6.976;2023-01-15T00:21:12;9.70;99.90
36384;DHT22;22418;51.210;6.976;2023-01-15T00:23:43;9.80;99.90
36384;DHT22;22418;51.210;6.976;2023-01-15T00:26:33;9.80;99.90
36384;DHT22;22418;51.210;6.976;2023-01-15T00:29:23;9.70;99.90
36384;DHT22;22418;51.210;6.976;2023-01-15T00:32:04;9.80;99.90
36384;DHT22;22418;51.210;6.976;2023-01-15T00:34:35;9.80;99.90
36384;DHT22;22418;51.210;6.976;2023-01-15T00:37:06;9.80;99.90
36384;DHT22;22418;51.210;6.976;2023-01-15T00:39:36;9.70;99.90
36384;DHT22;22418;51.210;6.976;2023-01-15T00:42:08;9.80;99.90
36384;DHT22;22418;51.210;6.976;2023-01-15T00:44:39;9.80;99.90
36384;DHT22;22418;51.210;6.976;2023-01-15T00:47:09;9.80;99.90
36384;DHT22;22418;51.210;6.976;2023-01-15T00:49:44;9.80;99.90
36384;DHT22;22418;51.210;6.976;2023-01-15T00:52:15;9.80;99.90
36384;DHT22;22418;51.210;6.976;2023-01-15T00:54:45;9.80;99.90
36384;DHT22;22418;51.210;6.976;2023-01-15T00:57:17;9.80;99.90
36384;DHT22;22418;51.210;6.976;2023-01-15T00:59:48;9.80;99.90
36384;DHT22;22418;51.210;6.976;2023-01-15T01:02:19;9.80;99.90
36384;DHT22;22418;51.210;6.976;2023-01-15T01:04:49;9.70;99.90
36384;DHT22;22418;51.210;6.976;2023-01-15T01:07:20;9.60;99.90
36384;DHT22;22418;51.210;6.976;2023-01-15T01:09:50;9.70;99.90
36384;DHT22;22418;51.210;6.976;2023-01-15T01:12:21;9.70;99.90
36384;DHT22;22418;51.210;6.976;2023-01-15T01:14:52;9.60;99.90
36384;DHT22;22418;51.210;6.976;2023-01-15T01:17:23;9.50;99.90
36384;DHT22;22418;51.210;6.976;2023-01-15T01:19:54;9.60;99.90
36384;DHT22;22418;51.210;6.976;2023-01-15T01:22:24;9.60;99.90
36384;DHT22;22418;51.210;6.976;2023-01-15T01:24:55;9.60;99.90
36384;DHT22;22418;51.210;6.976;2023-01-15T01:27:25;9.50;99.90
36384;DHT22;22418;51.210;6.976;2023-01-15T01:29:56;9.60;99.90
36384;DHT22;22418;51.210;6.976;2023-01-15T01:32:26;9.50;99.90
36384;DHT22;22418;51.210;6.976;2023-01-15T01:34:57;9.40;99.90
36384;DHT22;22418;51.210;6.976;2023-01-15T01:37:28;9.30;99.90
36384;DHT22;22418;51.210;6.976;2023-01-15T01:39:58;9.40;99.90
36384;DHT22;22418;51.210;6.976;2023-01-15T01:42:29;9.40;99.90
36384;DHT22;22418;51.210;6.976;2023-01-15T01:45:35;9.40;99.90
36384;DHT22;22418;51.210;6.976;2023-01-15T01:48:02;9.40;99.90
36384;DHT22;22418;51.210;6.976;2023-01-15T01:50:38;9.40;99.90
36384;DHT22;22418;51.210;6.976;2023-01-15T01:53:20;9.40;99.90
36384;DHT22;22418;51.210;6.976;2023-01-15T01:55:52;9.40;99.90
36384;DHT22;22418;51.210;6.976;2023-01-15T01:58:28;9.40;99.90
36384;DHT22;22418;51.210;6.976;2023-01-15T02:01:03;9.30;99.90
36384;DHT22;22418;51.210;6.976;2023-01-15T02:03:36;9.30;99.90
36384;DHT22;22418;51.210;6.976;2023-01-15T02:06:08;9.40;99.90
36384;DHT22;22418;51.210;6.976;2023-01-15T02:08:42;9.30;99.90
36384;DHT22;22418;51.210;6.976;2023-01-15T02:11:19;9.40;99.90
36384;DHT22;22418;51.210;6.976;2023-01-15T02:17:12;9.30;99.90
36384;DHT22;22418;51.210;6.976;2023-01-15T02:28:15;9.40;99.90
36384;DHT22;22418;51.210;6.976;2023-01-15T02:30:52;9.30;99.90
36384;DHT22;22418;51.210;6.976;2023-01-15T02:33:32;9.30;99.90
36384;DHT22;22418;51.210;6.976;2023-01-15T02:36:12;9.30;99.90
36384;DHT22;22418;51.210;6.976;2023-01-15T02:38:47;9.30;99.90
36384;DHT22;22418;51.210;6.976;2023-01-15T02:41:21;9.30;99.90
36384;DHT22;22418;51.210;6.976;2023-01-15T02:43:55;9.30;99.90
36384;DHT22;22418;51.210;6.976;2023-01-15T02:46:30;9.20;99.90
36384;DHT22;22418;51.210;6.976;2023-01-15T02:49:04;9.20;99.90
36384;DHT22;22418;51.210;6.976;2023-01-15T02:51:54;9.20;99.90
36384;DHT22;22418;51.210;6.976;2023-01-15T02:54:30;9.20;99.90
36384;DHT22;22418;51.210;6.976;2023-01-15T02:57:03;9.30;99.90
36384;DHT22;22418;51.210;6.976;2023-01-15T02:59:38;9.30;99.90
36384;DHT22;22418;51.210;6.976;2023-01-15T03:02:14;9.30;99.90
36384;DHT22;22418;51.210;6.976;2023-01-15T03:07:26;9.30;99.90
36384;DHT22;22418;51.210;6.976;2023-01-15T03:09:58;9.30;99.90
36384;DHT22;22418;51.210;6.976;2023-01-15T03:15:54;9.30;99.90
36384;DHT22;22418;51.210;6.976;2023-01-15T03:18:54;9.30;99.90
36384;DHT22;22418;51.210;6.976;2023-01-15T03:26:59;9.30;99.90
36384;DHT22;22418;51.210;6.976;2023-01-15T03:29:33;9.20;99.90
36384;DHT22;22418;51.210;6.976;2023-01-15T03:32:06;9.20;99.90
36384;DHT22;22418;51.210;6.976;2023-01-15T03:34:45;9.10;99.90
36384;DHT22;22418;51.210;6.976;2023-01-15T03:37:18;9.20;99.90
36384;DHT22;22418;51.210;6.976;2023-01-15T03:39:49;9.20;99.90
36384;DHT22;22418;51.210;6.976;2023-01-15T03:45:14;9.20;99.90
36384;DHT22;22418;51.210;6.976;2023-01-15T03:53:34;9.20;99.90
36384;DHT22;22418;51.210;6.976;2023-01-15T03:56:31;9.10;99.90
36384;DHT22;22418;51.210;6.976;2023-01-15T03:59:12;9.10;99.90
36384;DHT22;22418;51.210;6.976;2023-01-15T04:01:47;9.10;99.90
36384;DHT22;22418;51.210;6.976;2023-01-15T04:04:18;9.10;99.90
36384;DHT22;22418;51.210;6.976;2023-01-15T04:06:49;9.10;99.90
36384;DHT22;22418;51.210;6.976;2023-01-15T04:09:20;9.20;99.90
36384;DHT22;22418;51.210;6.976;2023-01-15T04:11:50;9.20;99.90
36384;DHT22;22418;51.210;6.976;2023-01-15T04:14:21;9.10;99.90
36384;DHT22;22418;51.210;6.976;2023-01-15T04:16:51;9.10;99.90
36384;DHT22;22418;51.210;6.976;2023-01-15T04:19:23;9.10;99.90
36384;DHT22;22418;51.210;6.976;2023-01-15T04:21:54;9.20;99.90
36384;DHT22;22418;51.210;6.976;2023-01-15T04:24:24;9.10;99.90
36384;DHT22;22418;51.210;6.976;2023-01-15T04:26:55;9.20;99.90
36384;DHT22;22418;51.210;6.976;2023-01-15T04:29:25;9.10;99.90
36384;DHT22;22418;51.210;6.976;2023-01-15T04:31:56;9.20;99.90
36384;DHT22;22418;51.210;6.976;2023-01-15T04:34:27;9.10;99.90
36384;DHT22;22418;51.210;6.976;2023-01-15T04:36:58;9.00;99.90
36384;DHT22;22418;51.210;6.976;2023-01-15T04:39:29;9.00;99.90
36384;DHT22;22418;51.210;6.976;2023-01-15T04:41:59;9.10;99.90
36384;DHT22;22418;51.210;6.976;2023-01-15T04:44:49;9.10;99.90
36384;DHT22;22418;51.210;6.976;2023-01-15T04:47:19;9.00;99.90
36384;DHT22;22418;51.210;6.976;2023-01-15T04:49:50;9.10;99.90
36384;DHT22;22418;51.210;6.976;2023-01-15T04:52:20;9.10;99.90
36384;DHT22;22418;51.210;6.976;2023-01-15T04:54:54;9.10;99.90
36384;DHT22;22418;51.210;6.976;2023-01-15T04:57:25;9.10;99.90
36384;DHT22;22418;51.210;6.976;2023-01-15T04:59:58;9.10;99.90
36384;DHT22;22418;51.210;6.976;2023-01-15T05:02:29;9.10;99.90
36384;DHT22;22418;51.210;6.976;2023-01-15T05:04:59;9.20;99.90
36384;DHT22;22418;51.210;6.976;2023-01-15T05:07:30;9.10;99.90
36384;DHT22;22418;51.210;6.976;2023-01-15T05:10:00;9.10;99.90
36384;DHT22;22418;51.210;6.976;2023-01-15T05:12:31;9.00;99.90
36384;DHT22;22418;51.210;6.976;2023-01-15T05:15:01;9.10;99.90
36384;DHT22;22418;51.210;6.976;2023-01-15T05:17:32;9.10;99.90
36384;DHT22;22418;51.210;6.976;2023-01-15T05:20:03;9.10;99.90
36384;DHT22;22418;51.210;6.976;2023-01-15T05:22:34;9.10;99.90
36384;DHT22;22418;51.210;6.976;2023-01-15T05:25:05;9.20;99.90
36384;DHT22;22418;51.210;6.976;2023-01-15T05:27:36;9.10;99.90
36384;DHT22;22418;51.210;6.976;2023-01-15T05:30:07;9.10;99.90
36384;DHT22;22418;51.210;6.976;2023-01-15T05:32:38;9.20;99.90
36384;DHT22;22418;51.210;6.976;2023-01-15T05:35:08;9.20;99.90
36384;DHT22;22418;51.210;6.976;2023-01-15T05:37:39;9.20;99.90
36384;DHT22;22418;51.210;6.976;2023-01-15T05:40:12;9.30;99.90
36384;DHT22;22418;51.210;6.976;2023-01-15T05:42:43;9.20;99.90
36384;DHT22;22418;51.210;6.976;2023-01-15T05:45:16;9.30;99.90
36384;DHT22;22418;51.210;6.976;2023-01-15T05:47:47;9.30;99.90
36384;DHT22;22418;51.210;6.976;2023-01-15T05:50:17;9.30;99.90
36384;DHT22;22418;51.210;6.976;2023-01-15T05:52:48;9.30;99.90
36384;DHT22;22418;51.210;6.976;2023-01-15T05:55:18;9.20;99.90
36384;DHT22;22418;51.210;6.976;2023-01-15T05:57:49;9.20;99.90
36384;DHT22;22418;51.210;6.976;2023-01-15T06:00:20;9.20;99.90
36384;DHT22;22418;51.210;6.976;2023-01-15T06:02:50;9.30;99.90
36384;DHT22;22418;51.210;6.976;2023-01-15T06:05:21;9.30;99.90
36384;DHT22;22418;51.210;6.976;2023-01-15T06:07:51;9.20;99.90
36384;DHT22;22418;51.210;6.976;2023-01-15T06:10:22;9.30;99.90
36384;DHT22;22418;51.210;6.976;2023-01-15T06:12:52;9.30;99.90
36384;DHT22;22418;51.210;6.976;2023-01-15T06:15:23;9.40;99.90
36384;DHT22;22418;51.210;6.976;2023-01-15T06:17:53;9.40;99.90
36384;DHT22;22418;51.210;6.976;2023-01-15T06:20:24;9.40;99.90
36384;DHT22;22418;51.210;6.976;2023-01-15T06:22:54;9.30;99.90
36384;DHT22;22418;51.210;6.976;2023-01-15T06:25:25;9.30;99.90
36384;DHT22;22418;51.210;6.976;2023-01-15T06:27:57;9.40;99.90
36384;DHT22;22418;51.210;6.976;2023-01-15T06:30:27;9.40;99.90
36384;DHT22;22418;51.210;6.976;2023-01-15T06:32:58;9.40;99.90
36384;DHT22;22418;51.210;6.976;2023-01-15T06:35:31;9.40;99.90
36384;DHT22;22418;51.210;6.976;2023-01-15T06:38:02;9.40;99.90
36384;DHT22;22418;51.210;6.976;2023-01-15T06:40:32;9.30;99.90
36384;DHT22;22418;51.210;6.976;2023-01-15T06:43:03;9.30;99.90
36384;DHT22;22418;51.210;6.976;2023-01-15T06:45:52;9.30;99.90
36384;DHT22;22418;51.210;6.976;2023-01-15T06:48:41;9.30;99.90
36384;DHT22;22418;51.210;6.976;2023-01-15T06:51:12;9.30;99.90
36384;DHT22;22418;51.210;6.976;2023-01-15T06:53:48;9.30;99.90
36384;DHT22;22418;51.210;6.976;2023-01-15T06:56:18;9.30;99.90
36384;DHT22;22418;51.210;6.976;2023-01-15T06:58:49;9.30;99.90
36384;DHT22;22418;51.210;6.976;2023-01-15T07:01:19;9.30;99.90
36384;DHT22;22418;51.210;6.976;2023-01-15T07:03:50;9.30;99.90
36384;DHT22;22418;51.210;6.976;2023-01-15T07:06:20;9.30;99.90
36384;DHT22;22418;51.210;6.976;2023-01-15T07:08:52;9.20;99.90
36384;DHT22;22418;51.210;6.976;2023-01-15T07:11:23;9.20;99.90
36384;DHT22;22418;51.210;6.976;2023-01-15T07:13:53;9.20;99.90
36384;DHT22;22418;51.210;6.976;2023-01-15T07:16:38;9.20;99.90
36384;DHT22;22418;51.210;6.976;2023-01-15T07:19:09;9.20;99.90
36384;DHT22;22418;51.210;6.976;2023-01-15T07:21:39;9.20;99.90
36384;DHT22;22418;51.210;6.976;2023-01-15T07:24:11;9.20;99.90
36384;DHT22;22418;51.210;6.976;2023-01-15T07:26:42;9.20;99.90
36384;DHT22;22418;51.210;6.976;2023-01-15T07:29:13;9.20;99.90
36384;DHT22;22418;51.210;6.976;2023-01-15T07:31:44;9.20;99.90
36384;DHT22;22418;51.210;6.976;2023-01-15T07:34:18;9.20;99.90
36384;DHT22;22418;51.210;6.976;2023-01-15T07:36:48;9.10;99.90
36384;DHT22;22418;51.210;6.976;2023-01-15T07:39:19;9.10;99.90
36384;DHT22;22418;51.210;6.976;2023-01-15T07:41:49;9.20;99.90
36384;DHT22;22418;51.210;6.976;2023-01-15T07:44:39;9.20;99.90
36384;DHT22;22418;51.210;6.976;2023-01-15T07:47:28;9.30;99.90
36384;DHT22;22418;51.210;6.976;2023-01-15T07:50:22;9.20;99.90
36384;DHT22;22418;51.210;6.976;2023-01-15T07:52:52;9.20;99.90
36384;DHT22;22418;51.210;6.976;2023-01-15T07:55:23;9.30;99.90
36384;DHT22;22418;51.210;6.976;2023-01-15T07:57:54;9.20;99.90
36384;DHT22;22418;51.210;6.976;2023-01-15T08:00:24;9.30;99.90
36384;DHT22;22418;51.210;6.976;2023-01-15T08:02:55;9.20;99.90
36384;DHT22;22418;51.210;6.976;2023-01-15T08:05:26;9.20;99.90
36384;DHT22;22418;51.210;6.976;2023-01-15T08:07:56;9.20;99.90
36384;DHT22;22418;51.210;6.976;2023-01-15T08:10:27;9.30;99.90
36384;DHT22;22418;51.210;6.976;2023-01-15T08:12:57;9.20;99.90
36384;DHT22;22418;51.210;6.976;2023-01-15T08:15:46;9.30;99.90
36384;DHT22;22418;51.210;6.976;2023-01-15T08:18:17;9.40;99.90
36384;DHT22;22418;51.210;6.976;2023-01-15T08:20:47;9.40;99.90
36384;DHT22;22418;51.210;6.976;2023-01-15T08:23:18;9.30;99.90
36384;DHT22;22418;51.210;6.976;2023-01-15T08:25:48;9.20;99.90
36384;DHT22;22418;51.210;6.976;2023-01-15T08:28:19;9.20;99.90
36384;DHT22;22418;51.210;6.976;2023-01-15T08:30:49;9.20;99.90
36384;DHT22;22418;51.210;6.976;2023-01-15T08:33:20;9.30;99.90
36384;DHT22;22418;51.210;6.976;2023-01-15T08:35:50;9.20;99.90
36384;DHT22;22418;51.210;6.976;2023-01-15T08:38:21;9.20;99.90
36384;DHT22;22418;51.210;6.976;2023-01-15T08:40:53;9.30;99.90
36384;DHT22;22418;51.210;6.976;2023-01-15T08:43:31;9.30;99.90
36384;DHT22;22418;51.210;6.976;2023-01-15T08:46:04;9.20;99.90
36384;DHT22;22418;51.210;6.976;2023-01-15T08:48:35;9.30;99.90
36384;DHT22;22418;51.210;6.976;2023-01-15T08:51:07;9.30;99.90
36384;DHT22;22418;51.210;6.976;2023-01-15T08:53:38;9.20;99.90
36384;DHT22;22418;51.210;6.976;2023-01-15T08:56:17;9.20;99.90
36384;DHT22;22418;51.210;6.976;2023-01-15T08:58:47;9.10;99.90
36384;DHT22;22418;51.210;6.976;2023-01-15T09:01:18;9.10;99.90
36384;DHT22;22418;51.210;6.976;2023-01-15T09:03:48;9.10;99.90
36384;DHT22;22418;51.210;6.976;2023-01-15T09:06:19;9.10;99.90
36384;DHT22;22418;51.210;6.976;2023-01-15T09:08:50;9.10;99.90
36384;DHT22;22418;51.210;6.976;2023-01-15T09:11:20;9.10;99.90
36384;DHT22;22418;51.210;6.976;2023-01-15T09:13:51;9.10;99.90
36384;DHT22;22418;51.210;6.976;2023-01-15T09:16:23;9.10;99.90
36384;DHT22;22418;51.210;6.976;2023-01-15T09:18:55;9.10;99.90
36384;DHT22;22418;51.210;6.976;2023-01-15T09:21:26;9.10;99.90
36384;DHT22;22418;51.210;6.976;2023-01-15T09:23:57;9.10;99.90
36384;DHT22;22418;51.210;6.976;2023-01-15T09:26:38;9.00;99.90
36384;DHT22;22418;51.210;6.976;2023-01-15T09:29:09;9.00;99.90
36384;DHT22;22418;51.210;6.976;2023-01-15T09:31:40;9.00;99.90
36384;DHT22;22418;51.210;6.976;2023-01-15T09:34:10;9.00;99.90
36384;DHT22;22418;51.210;6.976;2023-01-15T09:36:41;9.00;99.90
36384;DHT22;22418;51.210;6.976;2023-01-15T09:39:12;9.00;99.90
36384;DHT22;22418;51.210;6.976;2023-01-15T09:48:14;9.20;99.90
36384;DHT22;22418;51.210;6.976;2023-01-15T09:56:37;9.20;99.90
36384;DHT22;22418;51.210;6.976;2023-01-15T09:59:33;9.30;99.90
36384;DHT22;22418;51.210;6.976;2023-01-15T10:05:32;9.30;99.90
36384;DHT22;22418;51.210;6.976;2023-01-15T10:08:11;9.30;99.90
36384;DHT22;22418;51.210;6.976;2023-01-15T10:10:47;9.40;99.90
36384;DHT22;22418;51.210;6.976;2023-01-15T10:13:36;9.50;99.90
36384;DHT22;22418;51.210;6.976;2023-01-15T10:16:10;9.60;99.90
36384;DHT22;22418;51.210;6.976;2023-01-15T10:18:41;9.60;99.90
36384;DHT22;22418;51.210;6.976;2023-01-15T10:21:27;9.70;99.90
36384;DHT22;22418;51.210;6.976;2023-01-15T10:24:14;9.70;99.90
36384;DHT22;22418;51.210;6.976;2023-01-15T10:26:55;9.80;99.90
36384;DHT22;22418;51.210;6.976;2023-01-15T10:29:45;9.80;99.90
36384;DHT22;22418;51.210;6.976;2023-01-15T10:38:19;10.00;99.90
36384;DHT22;22418;51.210;6.976;2023-01-15T10:44:07;10.10;99.90
36384;DHT22;22418;51.210;6.976;2023-01-15T10:46:43;10.00;99.90
36384;DHT22;22418;51.210;6.976;2023-01-15T10:49:16;10.10;99.90
36384;DHT22;22418;51.210;6.976;2023-01-15T10:51:55;10.10;99.90
36384;DHT22;22418;51.210;6.976;2023-01-15T10:54:40;10.10;99.90
36384;DHT22;22418;51.210;6.976;2023-01-15T10:57:46;10.00;99.90
36384;DHT22;22418;51.210;6.976;2023-01-15T11:00:13;10.00;99.90
36384;DHT22;22418;51.210;6.976;2023-01-15T11:03:02;10.00;99.90
36384;DHT22;22418;51.210;6.976;2023-01-15T11:05:37;10.00;99.90
36384;DHT22;22418;51.210;6.976;2023-01-15T11:08:14;10.10;99.90
36384;DHT22;22418;51.210;6.976;2023-01-15T11:10:48;10.20;99.90
36384;DHT22;22418;51.210;6.976;2023-01-15T11:13:21;10.30;99.90
36384;DHT22;22418;51.210;6.976;2023-01-15T11:16:17;10.30;99.90
36384;DHT22;22418;51.210;6.976;2023-01-15T11:19:26;10.30;99.90
36384;DHT22;22418;51.210;6.976;2023-01-15T11:22:16;10.20;99.90
36384;DHT22;22418;51.210;6.976;2023-01-15T11:24:49;10.00;99.90
36384;DHT22;22418;51.210;6.976;2023-01-15T11:27:25;10.00;99.90
36384;DHT22;22418;51.210;6.976;2023-01-15T11:29:59;9.90;99.90
36384;DHT22;22418;51.210;6.976;2023-01-15T11:32:31;9.80;99.90
36384;DHT22;22418;51.210;6.976;2023-01-15T11:35:17;9.90;99.90
36384;DHT22;22418;51.210;6.976;2023-01-15T11:37:47;10.00;99.90
36384;DHT22;22418;51.210;6.976;2023-01-15T11:40:20;10.10;99.90
36384;DHT22;22418;51.210;6.976;2023-01-15T11:42:52;9.90;99.90
36384;DHT22;22418;51.210;6.976;2023-01-15T11:45:49;9.80;99.90
36384;DHT22;22418;51.210;6.976;2023-01-15T11:48:47;9.90;99.90
36384;DHT22;22418;51.210;6.976;2023-01-15T11:51:41;9.90;99.90
36384;DHT22;22418;51.210;6.976;2023-01-15T11:54:14;10.00;99.90
36384;DHT22;22418;51.210;6.976;2023-01-15T11:56:45;10.00;99.90
36384;DHT22;22418;51.210;6.976;2023-01-15T11:59:17;9.90;99.90
36384;DHT22;22418;51.210;6.976;2023-01-15T12:01:53;10.00;99.90
36384;DHT22;22418;51.210;6.976;2023-01-15T12:04:41;10.00;99.90
36384;DHT22;22418;51.210;6.976;2023-01-15T12:07:15;10.00;99.90
36384;DHT22;22418;51.210;6.976;2023-01-15T12:10:02;10.00;99.90
36384;DHT22;22418;51.210;6.976;2023-01-15T12:13:03;10.10;99.90
36384;DHT22;22418;51.210;6.976;2023-01-15T12:18:55;10.30;99.90
36384;DHT22;22418;51.210;6.976;2023-01-15T12:27:49;10.10;99.90
36384;DHT22;22418;51.210;6.976;2023-01-15T12:35:58;9.80;99.90
36384;DHT22;22418;51.210;6.976;2023-01-15T12:41:26;9.80;99.90
36384;DHT22;22418;51.210;6.976;2023-01-15T12:44:29;10.00;99.90
36384;DHT22;22418;51.210;6.976;2023-01-15T12:56:01;10.40;99.90
36384;DHT22;22418;51.210;6.976;2023-01-15T13:04:29;9.90;99.90
36384;DHT22;22418;51.210;6.976;2023-01-15T13:10:22;10.10;99.90
36384;DHT22;22418;51.210;6.976;2023-01-15T13:13:08;10.00;99.90
36384;DHT22;22418;51.210;6.976;2023-01-15T13:21:18;10.00;99.90
36384;DHT22;22418;51.210;6.976;2023-01-15T13:24:10;10.10;99.90
36384;DHT22;22418;51.210;6.976;2023-01-15T13:32:13;10.20;99.90
36384;DHT22;22418;51.210;6.976;2023-01-15T13:34:52;9.90;99.90
36384;DHT22;22418;51.210;6.976;2023-01-15T13:37:27;9.90;99.90
36384;DHT22;22418;51.210;6.976;2023-01-15T13:42:36;9.80;99.90
36384;DHT22;22418;51.210;6.976;2023-01-15T13:45:20;9.90;99.90
36384;DHT22;22418;51.210;6.976;2023-01-15T13:48:07;9.90;99.90
36384;DHT22;22418;51.210;6.976;2023-01-15T13:51:03;9.90;99.90
36384;DHT22;22418;51.210;6.976;2023-01-15T13:53:37;9.80;99.90
36384;DHT22;22418;51.210;6.976;2023-01-15T13:56:10;9.70;99.90
36384;DHT22;22418;51.210;6.976;2023-01-15T13:58:58;9.80;99.90
36384;DHT22;22418;51.210;6.976;2023-01-15T14:04:13;9.90;99.90
36384;DHT22;22418;51.210;6.976;2023-01-15T14:06:48;9.90;99.90
36384;DHT22;22418;51.210;6.976;2023-01-15T14:26:38;9.70;99.90
36384;DHT22;22418;51.210;6.976;2023-01-15T14:29:31;9.80;99.90
36384;DHT22;22418;51.210;6.976;2023-01-15T14:35:01;9.80;99.90
36384;DHT22;22418;51.210;6.976;2023-01-15T14:40:32;9.70;99.90
36384;DHT22;22418;51.210;6.976;2023-01-15T14:43:09;9.60;99.90
36384;DHT22;22418;51.210;6.976;2023-01-15T14:45:46;9.60;99.90
36384;DHT22;22418;51.210;6.976;2023-01-15T14:48:37;9.60;99.90
36384;DHT22;22418;51.210;6.976;2023-01-15T14:51:17;9.70;99.90
36384;DHT22;22418;51.210;6.976;2023-01-15T14:53:58;9.80;99.90
36384;DHT22;22418;51.210;6.976;2023-01-15T14:56:36;9.80;99.90
36384;DHT22;22418;51.210;6.976;2023-01-15T14:59:19;9.80;99.90
36384;DHT22;22418;51.210;6.976;2023-01-15T15:05:12;9.60;99.90
36384;DHT22;22418;51.210;6.976;2023-01-15T15:07:46;9.70;99.90
36384;DHT22;22418;51.210;6.976;2023-01-15T15:10:36;9.70;99.90
36384;DHT22;22418;51.210;6.976;2023-01-15T15:16:00;9.70;99.90
36384;DHT22;22418;51.210;6.976;2023-01-15T15:18:51;9.70;99.90
36384;DHT22;22418;51.210;6.976;2023-01-15T15:21:28;9.60;99.90
36384;DHT22;22418;51.210;6.976;2023-01-15T15:24:11;9.60;99.90
36384;DHT22;22418;51.210;6.976;2023-01-15T15:26:43;9.60;99.90
36384;DHT22;22418;51.210;6.976;2023-01-15T15:29:15;9.60;99.90
36384;DHT22;22418;51.210;6.976;2023-01-15T15:31:52;9.60;99.90
36384;DHT22;22418;51.210;6.976;2023-01-15T15:34:37;9.60;99.90
36384;DHT22;22418;51.210;6.976;2023-01-15T15:37:24;9.70;99.90
36384;DHT22;22418;51.210;6.976;2023-01-15T15:40:14;9.70;99.90
36384;DHT22;22418;51.210;6.976;2023-01-15T15:43:00;9.70;99.90
36384;DHT22;22418;51.210;6.976;2023-01-15T15:45:55;9.60;99.90
36384;DHT22;22418;51.210;6.976;2023-01-15T15:48:50;9.70;99.90
36384;DHT22;22418;51.210;6.976;2023-01-15T15:51:46;9.70;99.90
36384;DHT22;22418;51.210;6.976;2023-01-15T15:54:26;9.60;99.90
36384;DHT22;22418;51.210;6.976;2023-01-15T15:57:13;9.60;99.90
36384;DHT22;22418;51.210;6.976;2023-01-15T15:59:48;9.60;99.90
36384;DHT22;22418;51.210;6.976;2023-01-15T16:02:33;9.70;99.90
36384;DHT22;22418;51.210;6.976;2023-01-15T16:05:29;9.70;99.90
36384;DHT22;22418;51.210;6.976;2023-01-15T16:10:58;9.70;99.90
36384;DHT22;22418;51.210;6.976;2023-01-15T16:13:42;9.70;99.90
36384;DHT22;22418;51.210;6.976;2023-01-15T16:16:13;9.60;99.90
36384;DHT22;22418;51.210;6.976;2023-01-15T16:18:51;9.60;99.90
36384;DHT22;22418;51.210;6.976;2023-01-15T16:21:34;9.60;99.90
36384;DHT22;22418;51.210;6.976;2023-01-15T16:24:07;9.60;99.90
36384;DHT22;22418;51.210;6.976;2023-01-15T16:26:44;9.60;99.90
36384;DHT22;22418;51.210;6.976;2023-01-15T16:29:23;9.60;99.90
36384;DHT22;22418;51.210;6.976;2023-01-15T16:31:56;9.60;99.90
36384;DHT22;22418;51.210;6.976;2023-01-15T16:34:31;9.60;99.90
36384;DHT22;22418;51.210;6.976;2023-01-15T16:37:02;9.60;99.90
36384;DHT22;22418;51.210;6.976;2023-01-15T16:42:25;9.70;99.90
36384;DHT22;22418;51.210;6.976;2023-01-15T16:45:00;9.60;99.90
36384;DHT22;22418;51.210;6.976;2023-01-15T16:47:33;9.60;99.90
36384;DHT22;22418;51.210;6.976;2023-01-15T16:50:25;9.60;99.90
36384;DHT22;22418;51.210;6.976;2023-01-15T16:52:57;9.60;99.90
36384;DHT22;22418;51.210;6.976;2023-01-15T16:55:45;9.70;99.90
36384;DHT22;22418;51.210;6.976;2023-01-15T16:58:20;9.50;99.90
36384;DHT22;22418;51.210;6.976;2023-01-15T17:00:52;9.50;99.90
36384;DHT22;22418;51.210;6.976;2023-01-15T17:03:25;9.50;99.90
36384;DHT22;22418;51.210;6.976;2023-01-15T17:05:59;9.50;99.90
36384;DHT22;22418;51.210;6.976;2023-01-15T17:08:46;9.60;99.90
36384;DHT22;22418;51.210;6.976;2023-01-15T17:11:26;9.50;99.90
36384;DHT22;22418;51.210;6.976;2023-01-15T17:14:20;9.60;99.90
36384;DHT22;22418;51.210;6.976;2023-01-15T17:17:14;9.60;99.90
36384;DHT22;22418;51.210;6.976;2023-01-15T17:19:48;9.60;99.90
36384;DHT22;22418;51.210;6.976;2023-01-15T17:24:52;9.60;99.90
36384;DHT22;22418;51.210;6.976;2023-01-15T17:27:23;9.60;99.90
36384;DHT22;22418;51.210;6.976;2023-01-15T17:29:54;9.60;99.90
36384;DHT22;22418;51.210;6.976;2023-01-15T17:32:29;9.50;99.90
36384;DHT22;22418;51.210;6.976;2023-01-15T17:35:00;9.50;99.90
36384;DHT22;22418;51.210;6.976;2023-01-15T17:37:31;9.40;99.90
36384;DHT22;22418;51.210;6.976;2023-01-15T17:40:04;9.40;99.90
36384;DHT22;22418;51.210;6.976;2023-01-15T17:42:35;9.40;99.90
36384;DHT22;22418;51.210;6.976;2023-01-15T17:45:05;9.40;99.90
36384;DHT22;22418;51.210;6.976;2023-01-15T17:47:36;9.30;99.90
36384;DHT22;22418;51.210;6.976;2023-01-15T17:50:07;9.30;99.90
36384;DHT22;22418;51.210;6.976;2023-01-15T17:52:38;9.30;99.90
36384;DHT22;22418;51.210;6.976;2023-01-15T17:55:18;9.30;99.90
36384;DHT22;22418;51.210;6.976;2023-01-15T17:58:14;9.30;99.90
36384;DHT22;22418;51.210;6.976;2023-01-15T18:01:10;9.20;99.90
36384;DHT22;22418;51.210;6.976;2023-01-15T18:04:02;9.30;99.90
36384;DHT22;22418;51.210;6.976;2023-01-15T18:06:52;9.40;99.90
36384;DHT22;22418;51.210;6.976;2023-01-15T18:09:25;9.40;99.90
36384;DHT22;22418;51.210;6.976;2023-01-15T18:11:59;9.40;99.90
36384;DHT22;22418;51.210;6.976;2023-01-15T18:14:30;9.30;99.90
36384;DHT22;22418;51.210;6.976;2023-01-15T18:17:01;9.30;99.90
36384;DHT22;22418;51.210;6.976;2023-01-15T18:19:32;9.30;99.90
36384;DHT22;22418;51.210;6.976;2023-01-15T18:22:03;9.20;99.90
36384;DHT22;22418;51.210;6.976;2023-01-15T18:24:33;9.30;99.90
36384;DHT22;22418;51.210;6.976;2023-01-15T18:27:04;9.20;99.90
36384;DHT22;22418;51.210;6.976;2023-01-15T18:29:34;9.20;99.90
36384;DHT22;22418;51.210;6.976;2023-01-15T18:32:09;9.20;99.90
36384;DHT22;22418;51.210;6.976;2023-01-15T18:34:39;9.20;99.90
36384;DHT22;22418;51.210;6.976;2023-01-15T18:37:10;9.20;99.90
36384;DHT22;22418;51.210;6.976;2023-01-15T18:39:42;9.20;99.90
36384;DHT22;22418;51.210;6.976;2023-01-15T18:42:13;9.20;99.90
36384;DHT22;22418;51.210;6.976;2023-01-15T18:44:49;9.20;99.90
36384;DHT22;22418;51.210;6.976;2023-01-15T18:47:38;9.20;99.90
36384;DHT22;22418;51.210;6.976;2023-01-15T18:50:10;9.20;99.90
36384;DHT22;22418;51.210;6.976;2023-01-15T18:52:40;9.20;99.90
36384;DHT22;22418;51.210;6.976;2023-01-15T18:55:22;9.20;99.90
36384;DHT22;22418;51.210;6.976;2023-01-15T18:58:00;9.20;99.90
36384;DHT22;22418;51.210;6.976;2023-01-15T19:00:31;9.10;99.90
36384;DHT22;22418;51.210;6.976;2023-01-15T19:03:02;9.20;99.90
36384;DHT22;22418;51.210;6.976;2023-01-15T19:05:36;9.20;99.90